Terminal Aerodrome Forecast
Issued by NWS

Home | Current Version | Previous Version | Text Only | Print | Product List | Glossary Off
Versions: 1 2 3 4 5 6 7 8 9 10 11 12 13

000
FTUS43 KBIS 021730
TAFMOT
TAF
KMOT 021730Z 0218/0318 26016G23KT P6SM BKN100
     FM030100 31009KT P6SM SCT100
     FM031500 31015G22KT P6SM SKC=

USA.gov is the U.S. government's official web portal to all federal, state and local government web resources and services.